sensor_id;sensor_type;location;lat;lon;timestamp;P1;durP1;ratioP1;P2;durP2;ratioP2
1276;SDS011;631;51.024;13.826;2023-04-25T00:00:25;11.60;;;10.90;;
1276;SDS011;631;51.024;13.826;2023-04-25T00:02:51;12.17;;;11.47;;
1276;SDS011;631;51.024;13.826;2023-04-25T00:05:16;11.50;;;10.90;;
1276;SDS011;631;51.024;13.826;2023-04-25T00:07:42;12.20;;;11.40;;
1276;SDS011;631;51.024;13.826;2023-04-25T00:10:08;11.27;;;10.67;;
1276;SDS011;631;51.024;13.826;2023-04-25T00:12:35;10.97;;;10.37;;
1276;SDS011;631;51.024;13.826;2023-04-25T00:15:01;11.07;;;10.37;;
1276;SDS011;631;51.024;13.826;2023-04-25T00:17:28;11.17;;;10.50;;
1276;SDS011;631;51.024;13.826;2023-04-25T00:19:53;12.03;;;11.20;;
1276;SDS011;631;51.024;13.826;2023-04-25T00:22:19;11.77;;;11.03;;
1276;SDS011;631;51.024;13.826;2023-04-25T00:24:45;11.80;;;10.90;;
1276;SDS011;631;51.024;13.826;2023-04-25T00:27:11;11.67;;;10.97;;
1276;SDS011;631;51.024;13.826;2023-04-25T00:29:36;12.00;;;11.30;;
1276;SDS011;631;51.024;13.826;2023-04-25T00:32:02;11.87;;;11.07;;
1276;SDS011;631;51.024;13.826;2023-04-25T00:34:28;11.70;;;10.90;;
1276;SDS011;631;51.024;13.826;2023-04-25T00:36:53;11.53;;;10.90;;
1276;SDS011;631;51.024;13.826;2023-04-25T00:39:19;11.77;;;11.13;;
1276;SDS011;631;51.024;13.826;2023-04-25T00:41:45;11.83;;;11.23;;
1276;SDS011;631;51.024;13.826;2023-04-25T00:44:10;11.60;;;10.90;;
1276;SDS011;631;51.024;13.826;2023-04-25T00:46:37;11.80;;;11.00;;
1276;SDS011;631;51.024;13.826;2023-04-25T00:49:03;11.60;;;11.00;;
1276;SDS011;631;51.024;13.826;2023-04-25T00:51:29;11.10;;;10.50;;
1276;SDS011;631;51.024;13.826;2023-04-25T00:53:56;11.40;;;10.70;;
1276;SDS011;631;51.024;13.826;2023-04-25T00:56:22;11.63;;;10.90;;
1276;SDS011;631;51.024;13.826;2023-04-25T00:58:48;11.60;;;11.00;;
1276;SDS011;631;51.024;13.826;2023-04-25T01:01:16;10.90;;;10.30;;
1276;SDS011;631;51.024;13.826;2023-04-25T01:03:42;11.03;;;10.43;;
1276;SDS011;631;51.024;13.826;2023-04-25T01:06:10;11.10;;;10.50;;
1276;SDS011;631;51.024;13.826;2023-04-25T01:08:37;11.17;;;10.57;;
1276;SDS011;631;51.024;13.826;2023-04-25T01:11:03;12.10;;;11.30;;
1276;SDS011;631;51.024;13.826;2023-04-25T01:13:29;11.80;;;11.10;;
1276;SDS011;631;51.024;13.826;2023-04-25T01:15:56;12.20;;;11.50;;
1276;SDS011;631;51.024;13.826;2023-04-25T01:18:23;12.23;;;11.43;;
1276;SDS011;631;51.024;13.826;2023-04-25T01:20:50;12.10;;;11.30;;
1276;SDS011;631;51.024;13.826;2023-04-25T01:23:17;12.23;;;11.50;;
1276;SDS011;631;51.024;13.826;2023-04-25T01:25:44;12.90;;;12.10;;
1276;SDS011;631;51.024;13.826;2023-04-25T01:28:11;11.90;;;11.20;;
1276;SDS011;631;51.024;13.826;2023-04-25T01:30:37;12.93;;;12.00;;
1276;SDS011;631;51.024;13.826;2023-04-25T01:33:04;12.20;;;11.50;;
1276;SDS011;631;51.024;13.826;2023-04-25T01:35:30;12.73;;;11.93;;
1276;SDS011;631;51.024;13.826;2023-04-25T01:37:57;13.60;;;12.50;;
1276;SDS011;631;51.024;13.826;2023-04-25T01:40:23;12.60;;;11.80;;
1276;SDS011;631;51.024;13.826;2023-04-25T01:42:50;12.27;;;11.47;;
1276;SDS011;631;51.024;13.826;2023-04-25T01:45:17;12.00;;;11.30;;
1276;SDS011;631;51.024;13.826;2023-04-25T01:47:43;12.90;;;12.07;;
1276;SDS011;631;51.024;13.826;2023-04-25T01:50:13;12.80;;;12.00;;
1276;SDS011;631;51.024;13.826;2023-04-25T01:52:40;13.53;;;12.53;;
1276;SDS011;631;51.024;13.826;2023-04-25T01:55:06;13.07;;;12.27;;
1276;SDS011;631;51.024;13.826;2023-04-25T01:57:32;12.97;;;12.03;;
1276;SDS011;631;51.024;13.826;2023-04-25T01:59:58;12.90;;;12.00;;
1276;SDS011;631;51.024;13.826;2023-04-25T02:02:25;11.70;;;10.90;;
1276;SDS011;631;51.024;13.826;2023-04-25T02:04:51;12.30;;;11.50;;
1276;SDS011;631;51.024;13.826;2023-04-25T02:07:17;13.10;;;12.30;;
1276;SDS011;631;51.024;13.826;2023-04-25T02:09:42;12.30;;;11.60;;
1276;SDS011;631;51.024;13.826;2023-04-25T02:12:09;13.50;;;12.60;;
1276;SDS011;631;51.024;13.826;2023-04-25T02:14:35;12.30;;;11.50;;
1276;SDS011;631;51.024;13.826;2023-04-25T02:17:01;13.13;;;12.33;;
1276;SDS011;631;51.024;13.826;2023-04-25T02:19:27;12.57;;;11.83;;
1276;SDS011;631;51.024;13.826;2023-04-25T02:21:52;13.40;;;12.40;;
1276;SDS011;631;51.024;13.826;2023-04-25T02:24:18;12.63;;;11.73;;
1276;SDS011;631;51.024;13.826;2023-04-25T02:26:43;13.00;;;12.10;;
1276;SDS011;631;51.024;13.826;2023-04-25T02:29:09;12.77;;;11.93;;
1276;SDS011;631;51.024;13.826;2023-04-25T02:31:35;12.30;;;11.60;;
1276;SDS011;631;51.024;13.826;2023-04-25T02:34:01;12.17;;;11.20;;
1276;SDS011;631;51.024;13.826;2023-04-25T02:36:27;12.27;;;11.47;;
1276;SDS011;631;51.024;13.826;2023-04-25T02:38:54;13.17;;;12.17;;
1276;SDS011;631;51.024;13.826;2023-04-25T02:41:20;12.47;;;11.57;;
1276;SDS011;631;51.024;13.826;2023-04-25T02:43:46;13.67;;;12.70;;
1276;SDS011;631;51.024;13.826;2023-04-25T02:46:11;12.93;;;12.13;;
1276;SDS011;631;51.024;13.826;2023-04-25T02:48:37;13.47;;;12.27;;
1276;SDS011;631;51.024;13.826;2023-04-25T02:51:02;12.37;;;11.47;;
1276;SDS011;631;51.024;13.826;2023-04-25T02:53:28;12.43;;;11.53;;
1276;SDS011;631;51.024;13.826;2023-04-25T02:55:53;12.67;;;11.87;;
1276;SDS011;631;51.024;13.826;2023-04-25T02:58:19;12.10;;;11.23;;
1276;SDS011;631;51.024;13.826;2023-04-25T03:00:45;12.10;;;11.30;;
1276;SDS011;631;51.024;13.826;2023-04-25T03:03:10;13.17;;;12.17;;
1276;SDS011;631;51.024;13.826;2023-04-25T03:05:36;13.50;;;12.50;;
1276;SDS011;631;51.024;13.826;2023-04-25T03:08:01;12.90;;;12.10;;
1276;SDS011;631;51.024;13.826;2023-04-25T03:10:27;12.83;;;11.87;;
1276;SDS011;631;51.024;13.826;2023-04-25T03:12:53;13.00;;;12.00;;
1276;SDS011;631;51.024;13.826;2023-04-25T03:15:19;13.73;;;12.80;;
1276;SDS011;631;51.024;13.826;2023-04-25T03:17:44;12.80;;;11.80;;
1276;SDS011;631;51.024;13.826;2023-04-25T03:20:10;12.50;;;11.60;;
1276;SDS011;631;51.024;13.826;2023-04-25T03:22:36;12.93;;;11.80;;
1276;SDS011;631;51.024;13.826;2023-04-25T03:25:02;14.23;;;13.20;;
1276;SDS011;631;51.024;13.826;2023-04-25T03:27:28;13.00;;;12.10;;
1276;SDS011;631;51.024;13.826;2023-04-25T03:29:54;13.97;;;12.93;;
1276;SDS011;631;51.024;13.826;2023-04-25T03:32:20;13.60;;;12.70;;
1276;SDS011;631;51.024;13.826;2023-04-25T03:34:45;15.17;;;13.93;;
1276;SDS011;631;51.024;13.826;2023-04-25T03:37:11;14.13;;;13.13;;
1276;SDS011;631;51.024;13.826;2023-04-25T03:39:36;13.40;;;12.20;;
1276;SDS011;631;51.024;13.826;2023-04-25T03:42:03;14.98;;;13.68;;
1276;SDS011;631;51.024;13.826;2023-04-25T03:44:29;14.60;;;13.50;;
1276;SDS011;631;51.024;13.826;2023-04-25T03:46:54;14.93;;;13.53;;
1276;SDS011;631;51.024;13.826;2023-04-25T03:49:20;13.67;;;12.57;;
1276;SDS011;631;51.024;13.826;2023-04-25T03:51:45;14.27;;;13.23;;
1276;SDS011;631;51.024;13.826;2023-04-25T03:54:11;14.17;;;13.00;;
1276;SDS011;631;51.024;13.826;2023-04-25T03:56:37;13.50;;;12.60;;
1276;SDS011;631;51.024;13.826;2023-04-25T03:59:02;13.47;;;12.30;;
1276;SDS011;631;51.024;13.826;2023-04-25T04:01:28;13.20;;;12.17;;
1276;SDS011;631;51.024;13.826;2023-04-25T04:03:54;14.13;;;13.03;;
1276;SDS011;631;51.024;13.826;2023-04-25T04:06:19;14.40;;;13.20;;
1276;SDS011;631;51.024;13.826;2023-04-25T04:08:45;14.13;;;12.97;;
1276;SDS011;631;51.024;13.826;2023-04-25T04:11:11;13.20;;;12.20;;
1276;SDS011;631;51.024;13.826;2023-04-25T04:13:37;14.90;;;13.60;;
1276;SDS011;631;51.024;13.826;2023-04-25T04:16:03;14.80;;;13.60;;
1276;SDS011;631;51.024;13.826;2023-04-25T04:18:29;13.35;;;12.35;;
1276;SDS011;631;51.024;13.826;2023-04-25T04:20:55;14.23;;;13.00;;
1276;SDS011;631;51.024;13.826;2023-04-25T04:23:23;12.70;;;11.70;;
1276;SDS011;631;51.024;13.826;2023-04-25T04:25:48;13.57;;;12.47;;
1276;SDS011;631;51.024;13.826;2023-04-25T04:28:14;14.83;;;13.53;;
1276;SDS011;631;51.024;13.826;2023-04-25T04:30:41;14.63;;;13.32;;
1276;SDS011;631;51.024;13.826;2023-04-25T04:33:07;13.30;;;12.20;;
1276;SDS011;631;51.024;13.826;2023-04-25T04:35:33;13.27;;;12.15;;
1276;SDS011;631;51.024;13.826;2023-04-25T04:37:59;13.60;;;12.60;;
1276;SDS011;631;51.024;13.826;2023-04-25T04:40:25;14.03;;;13.03;;
1276;SDS011;631;51.024;13.826;2023-04-25T04:42:51;14.70;;;13.50;;
1276;SDS011;631;51.024;13.826;2023-04-25T04:45:18;13.87;;;12.77;;
1276;SDS011;631;51.024;13.826;2023-04-25T04:47:43;13.90;;;12.83;;
1276;SDS011;631;51.024;13.826;2023-04-25T04:50:10;14.93;;;13.63;;
1276;SDS011;631;51.024;13.826;2023-04-25T04:52:36;13.70;;;12.60;;
1276;SDS011;631;51.024;13.826;2023-04-25T04:55:03;14.63;;;13.43;;
1276;SDS011;631;51.024;13.826;2023-04-25T04:57:30;14.50;;;13.30;;
1276;SDS011;631;51.024;13.826;2023-04-25T04:59:57;14.50;;;13.17;;
1276;SDS011;631;51.024;13.826;2023-04-25T05:02:24;13.80;;;12.67;;
1276;SDS011;631;51.024;13.826;2023-04-25T05:04:50;14.07;;;13.07;;
1276;SDS011;631;51.024;13.826;2023-04-25T05:07:16;14.50;;;13.30;;
1276;SDS011;631;51.024;13.826;2023-04-25T05:09:42;14.67;;;13.47;;
1276;SDS011;631;51.024;13.826;2023-04-25T05:12:08;13.53;;;12.57;;
1276;SDS011;631;51.024;13.826;2023-04-25T05:14:34;13.77;;;12.73;;
1276;SDS011;631;51.024;13.826;2023-04-25T05:16:59;13.10;;;12.00;;
1276;SDS011;631;51.024;13.826;2023-04-25T05:19:25;13.97;;;12.80;;
1276;SDS011;631;51.024;13.826;2023-04-25T05:21:51;14.13;;;12.93;;
1276;SDS011;631;51.024;13.826;2023-04-25T05:24:17;14.10;;;13.00;;
1276;SDS011;631;51.024;13.826;2023-04-25T05:26:42;13.63;;;12.53;;
1276;SDS011;631;51.024;13.826;2023-04-25T05:29:08;13.23;;;12.20;;
1276;SDS011;631;51.024;13.826;2023-04-25T05:31:35;14.70;;;13.50;;
1276;SDS011;631;51.024;13.826;2023-04-25T05:34:01;15.40;;;14.30;;
1276;SDS011;631;51.024;13.826;2023-04-25T05:36:27;13.77;;;12.67;;
1276;SDS011;631;51.024;13.826;2023-04-25T05:38:53;13.97;;;13.07;;
1276;SDS011;631;51.024;13.826;2023-04-25T05:41:18;14.00;;;12.87;;
1276;SDS011;631;51.024;13.826;2023-04-25T05:43:44;13.77;;;12.77;;
1276;SDS011;631;51.024;13.826;2023-04-25T05:46:12;13.73;;;12.70;;
1276;SDS011;631;51.024;13.826;2023-04-25T05:48:38;13.80;;;12.80;;
1276;SDS011;631;51.024;13.826;2023-04-25T05:51:04;12.63;;;11.80;;
1276;SDS011;631;51.024;13.826;2023-04-25T05:53:30;13.80;;;12.80;;
1276;SDS011;631;51.024;13.826;2023-04-25T05:55:56;12.93;;;12.13;;
1276;SDS011;631;51.024;13.826;2023-04-25T05:58:21;12.83;;;11.93;;
1276;SDS011;631;51.024;13.826;2023-04-25T06:00:47;12.83;;;11.93;;
1276;SDS011;631;51.024;13.826;2023-04-25T06:03:13;13.60;;;12.60;;
1276;SDS011;631;51.024;13.826;2023-04-25T06:05:41;13.80;;;12.90;;
1276;SDS011;631;51.024;13.826;2023-04-25T06:08:07;12.73;;;11.93;;
1276;SDS011;631;51.024;13.826;2023-04-25T06:10:34;12.77;;;11.93;;
1276;SDS011;631;51.024;13.826;2023-04-25T06:12:59;13.27;;;12.37;;
1276;SDS011;631;51.024;13.826;2023-04-25T06:15:25;14.33;;;13.00;;
1276;SDS011;631;51.024;13.826;2023-04-25T06:17:51;12.90;;;11.80;;
1276;SDS011;631;51.024;13.826;2023-04-25T06:20:16;13.60;;;12.50;;
1276;SDS011;631;51.024;13.826;2023-04-25T06:22:42;14.33;;;13.20;;
1276;SDS011;631;51.024;13.826;2023-04-25T06:25:07;14.03;;;13.07;;
1276;SDS011;631;51.024;13.826;2023-04-25T06:27:34;13.83;;;12.63;;
1276;SDS011;631;51.024;13.826;2023-04-25T06:29:59;14.43;;;13.40;;
1276;SDS011;631;51.024;13.826;2023-04-25T06:32:25;13.67;;;12.70;;
1276;SDS011;631;51.024;13.826;2023-04-25T06:34:52;14.00;;;12.97;;
1276;SDS011;631;51.024;13.826;2023-04-25T06:37:18;14.30;;;13.30;;
1276;SDS011;631;51.024;13.826;2023-04-25T06:39:43;13.60;;;12.60;;
1276;SDS011;631;51.024;13.826;2023-04-25T06:42:09;13.20;;;12.20;;
1276;SDS011;631;51.024;13.826;2023-04-25T06:44:35;14.23;;;13.23;;
1276;SDS011;631;51.024;13.826;2023-04-25T06:47:00;13.70;;;12.60;;
1276;SDS011;631;51.024;13.826;2023-04-25T06:49:26;12.60;;;11.50;;
1276;SDS011;631;51.024;13.826;2023-04-25T06:51:51;12.70;;;11.80;;
1276;SDS011;631;51.024;13.826;2023-04-25T06:54:17;13.43;;;12.53;;
1276;SDS011;631;51.024;13.826;2023-04-25T06:56:43;14.23;;;12.83;;
1276;SDS011;631;51.024;13.826;2023-04-25T06:59:08;12.43;;;11.53;;
1276;SDS011;631;51.024;13.826;2023-04-25T07:01:34;11.70;;;10.80;;
1276;SDS011;631;51.024;13.826;2023-04-25T07:04:00;12.87;;;11.87;;
1276;SDS011;631;51.024;13.826;2023-04-25T07:06:26;12.63;;;11.73;;
1276;SDS011;631;51.024;13.826;2023-04-25T07:08:52;12.90;;;12.00;;
1276;SDS011;631;51.024;13.826;2023-04-25T07:11:18;12.30;;;11.20;;
1276;SDS011;631;51.024;13.826;2023-04-25T07:13:44;12.17;;;11.27;;
1276;SDS011;631;51.024;13.826;2023-04-25T07:16:10;13.53;;;12.50;;
1276;SDS011;631;51.024;13.826;2023-04-25T07:18:35;13.17;;;12.27;;
1276;SDS011;631;51.024;13.826;2023-04-25T07:21:01;13.80;;;12.87;;
1276;SDS011;631;51.024;13.826;2023-04-25T07:23:26;14.20;;;13.20;;
1276;SDS011;631;51.024;13.826;2023-04-25T07:25:52;13.83;;;12.83;;
1276;SDS011;631;51.024;13.826;2023-04-25T07:28:18;14.13;;;13.13;;
1276;SDS011;631;51.024;13.826;2023-04-25T07:30:43;13.57;;;12.47;;
1276;SDS011;631;51.024;13.826;2023-04-25T07:33:09;13.73;;;12.73;;
1276;SDS011;631;51.024;13.826;2023-04-25T07:35:35;13.93;;;12.87;;
1276;SDS011;631;51.024;13.826;2023-04-25T07:38:01;14.13;;;13.10;;
1276;SDS011;631;51.024;13.826;2023-04-25T07:40:27;13.50;;;12.50;;
1276;SDS011;631;51.024;13.826;2023-04-25T07:42:53;13.20;;;12.20;;
1276;SDS011;631;51.024;13.826;2023-04-25T07:45:19;13.10;;;12.20;;
1276;SDS011;631;51.024;13.826;2023-04-25T07:47:44;13.40;;;12.53;;
1276;SDS011;631;51.024;13.826;2023-04-25T07:50:10;13.60;;;12.60;;
1276;SDS011;631;51.024;13.826;2023-04-25T07:52:35;13.10;;;12.20;;
1276;SDS011;631;51.024;13.826;2023-04-25T07:55:01;12.47;;;11.67;;
1276;SDS011;631;51.024;13.826;2023-04-25T07:57:27;14.67;;;13.67;;
1276;SDS011;631;51.024;13.826;2023-04-25T07:59:52;13.00;;;12.20;;
1276;SDS011;631;51.024;13.826;2023-04-25T08:02:18;13.40;;;12.60;;
1276;SDS011;631;51.024;13.826;2023-04-25T08:04:43;12.97;;;12.17;;
1276;SDS011;631;51.024;13.826;2023-04-25T08:07:09;12.93;;;12.13;;
1276;SDS011;631;51.024;13.826;2023-04-25T08:09:35;12.87;;;12.00;;
1276;SDS011;631;51.024;13.826;2023-04-25T08:12:01;12.83;;;12.10;;
1276;SDS011;631;51.024;13.826;2023-04-25T08:14:28;12.63;;;11.93;;
1276;SDS011;631;51.024;13.826;2023-04-25T08:16:56;12.50;;;11.50;;
1276;SDS011;631;51.024;13.826;2023-04-25T08:19:21;12.13;;;11.33;;
1276;SDS011;631;51.024;13.826;2023-04-25T08:21:47;11.80;;;11.20;;
1276;SDS011;631;51.024;13.826;2023-04-25T08:24:13;12.23;;;11.53;;
1276;SDS011;631;51.024;13.826;2023-04-25T08:26:38;13.07;;;12.30;;
1276;SDS011;631;51.024;13.826;2023-04-25T08:29:04;13.17;;;12.40;;
1276;SDS011;631;51.024;13.826;2023-04-25T08:31:31;12.90;;;12.10;;
1276;SDS011;631;51.024;13.826;2023-04-25T08:33:56;14.37;;;13.50;;
1276;SDS011;631;51.024;13.826;2023-04-25T08:36:22;13.00;;;12.20;;
1276;SDS011;631;51.024;13.826;2023-04-25T08:38:48;12.60;;;11.80;;
1276;SDS011;631;51.024;13.826;2023-04-25T08:41:14;12.30;;;11.60;;
1276;SDS011;631;51.024;13.826;2023-04-25T08:43:42;11.53;;;10.90;;
1276;SDS011;631;51.024;13.826;2023-04-25T08:46:09;12.50;;;11.70;;
1276;SDS011;631;51.024;13.826;2023-04-25T08:48:36;12.30;;;11.60;;
1276;SDS011;631;51.024;13.826;2023-04-25T08:51:02;11.00;;;10.30;;
1276;SDS011;631;51.024;13.826;2023-04-25T08:53:30;11.03;;;10.27;;
1276;SDS011;631;51.024;13.826;2023-04-25T08:55:57;11.23;;;10.63;;
1276;SDS011;631;51.024;13.826;2023-04-25T08:58:24;11.93;;;11.23;;
1276;SDS011;631;51.024;13.826;2023-04-25T09:00:50;11.07;;;10.47;;
1276;SDS011;631;51.024;13.826;2023-04-25T09:03:16;10.57;;;10.07;;
1276;SDS011;631;51.024;13.826;2023-04-25T09:05:42;12.33;;;11.63;;
1276;SDS011;631;51.024;13.826;2023-04-25T09:08:09;11.70;;;10.97;;
1276;SDS011;631;51.024;13.826;2023-04-25T09:10:35;11.90;;;11.20;;
1276;SDS011;631;51.024;13.826;2023-04-25T09:13:08;11.60;;;11.00;;
1276;SDS011;631;51.024;13.826;2023-04-25T09:18:13;13.30;;;12.57;;
1276;SDS011;631;51.024;13.826;2023-04-25T09:20:48;13.70;;;12.90;;
1276;SDS011;631;51.024;13.826;2023-04-25T09:23:14;13.50;;;12.50;;
1276;SDS011;631;51.024;13.826;2023-04-25T09:25:39;12.90;;;12.10;;
1276;SDS011;631;51.024;13.826;2023-04-25T09:28:06;12.43;;;11.63;;
1276;SDS011;631;51.024;13.826;2023-04-25T09:30:33;12.00;;;11.20;;
1276;SDS011;631;51.024;13.826;2023-04-25T09:33:06;13.70;;;12.80;;
1276;SDS011;631;51.024;13.826;2023-04-25T09:35:43;12.77;;;11.97;;
1276;SDS011;631;51.024;13.826;2023-04-25T09:38:10;13.80;;;12.90;;
1276;SDS011;631;51.024;13.826;2023-04-25T09:40:43;12.23;;;11.20;;
1276;SDS011;631;51.024;13.826;2023-04-25T09:43:20;13.00;;;12.20;;
1276;SDS011;631;51.024;13.826;2023-04-25T09:45:47;13.20;;;12.20;;
1276;SDS011;631;51.024;13.826;2023-04-25T09:48:20;11.70;;;11.00;;
1276;SDS011;631;51.024;13.826;2023-04-25T09:53:31;12.90;;;12.10;;
1276;SDS011;631;51.024;13.826;2023-04-25T09:55:59;13.77;;;12.67;;
1276;SDS011;631;51.024;13.826;2023-04-25T09:58:29;12.47;;;11.77;;
1276;SDS011;631;51.024;13.826;2023-04-25T10:00:56;13.30;;;12.30;;
1276;SDS011;631;51.024;13.826;2023-04-25T10:03:25;13.23;;;12.33;;
1276;SDS011;631;51.024;13.826;2023-04-25T10:05:51;13.63;;;12.73;;
1276;SDS011;631;51.024;13.826;2023-04-25T10:08:19;14.37;;;13.20;;
1276;SDS011;631;51.024;13.826;2023-04-25T10:10:45;13.50;;;12.60;;
1276;SDS011;631;51.024;13.826;2023-04-25T10:13:13;13.80;;;12.80;;
1276;SDS011;631;51.024;13.826;2023-04-25T10:15:40;13.13;;;12.33;;
1276;SDS011;631;51.024;13.826;2023-04-25T10:18:06;13.40;;;12.30;;
1276;SDS011;631;51.024;13.826;2023-04-25T10:20:33;14.30;;;13.40;;
1276;SDS011;631;51.024;13.826;2023-04-25T10:23:03;12.43;;;11.70;;
1276;SDS011;631;51.024;13.826;2023-04-25T10:25:36;12.93;;;12.13;;
1276;SDS011;631;51.024;13.826;2023-04-25T10:28:03;12.53;;;11.83;;
1276;SDS011;631;51.024;13.826;2023-04-25T10:30:28;12.10;;;11.40;;
1276;SDS011;631;51.024;13.826;2023-04-25T10:32:55;12.70;;;11.90;;
1276;SDS011;631;51.024;13.826;2023-04-25T10:35:24;12.67;;;11.97;;
1276;SDS011;631;51.024;13.826;2023-04-25T10:37:58;12.07;;;11.37;;
1276;SDS011;631;51.024;13.826;2023-04-25T10:40:30;12.30;;;11.60;;
1276;SDS011;631;51.024;13.826;2023-04-25T10:42:57;12.70;;;12.00;;
1276;SDS011;631;51.024;13.826;2023-04-25T10:51:24;12.97;;;12.07;;
1276;SDS011;631;51.024;13.826;2023-04-25T10:56:30;12.73;;;12.07;;
1276;SDS011;631;51.024;13.826;2023-04-25T11:01:40;11.47;;;10.87;;
1276;SDS011;631;51.024;13.826;2023-04-25T11:04:06;13.63;;;12.73;;
1276;SDS011;631;51.024;13.826;2023-04-25T11:09:23;11.93;;;11.33;;
1276;SDS011;631;51.024;13.826;2023-04-25T11:11:57;14.07;;;13.10;;
1276;SDS011;631;51.024;13.826;2023-04-25T11:14:24;12.50;;;11.70;;
1276;SDS011;631;51.024;13.826;2023-04-25T11:16:55;12.63;;;11.83;;
1276;SDS011;631;51.024;13.826;2023-04-25T11:19:22;13.60;;;12.60;;
1276;SDS011;631;51.024;13.826;2023-04-25T11:21:48;12.70;;;11.80;;
1276;SDS011;631;51.024;13.826;2023-04-25T11:24:15;13.00;;;12.20;;
1276;SDS011;631;51.024;13.826;2023-04-25T11:26:42;13.33;;;12.33;;
1276;SDS011;631;51.024;13.826;2023-04-25T11:29:08;13.50;;;12.60;;
1276;SDS011;631;51.024;13.826;2023-04-25T11:31:34;13.10;;;12.10;;
1276;SDS011;631;51.024;13.826;2023-04-25T11:33:59;13.60;;;12.50;;
1276;SDS011;631;51.024;13.826;2023-04-25T11:36:25;12.63;;;11.57;;
1276;SDS011;631;51.024;13.826;2023-04-25T11:38:51;11.63;;;10.83;;
1276;SDS011;631;51.024;13.826;2023-04-25T11:41:18;11.97;;;11.27;;
1276;SDS011;631;51.024;13.826;2023-04-25T11:43:47;11.57;;;10.77;;
1276;SDS011;631;51.024;13.826;2023-04-25T11:46:13;10.97;;;10.37;;
1276;SDS011;631;51.024;13.826;2023-04-25T11:48:40;11.10;;;10.40;;
1276;SDS011;631;51.024;13.826;2023-04-25T11:51:06;10.47;;;9.87;;
1276;SDS011;631;51.024;13.826;2023-04-25T11:53:32;10.50;;;9.90;;
1276;SDS011;631;51.024;13.826;2023-04-25T11:55:58;9.50;;;9.00;;
1276;SDS011;631;51.024;13.826;2023-04-25T11:58:25;9.37;;;8.87;;
1276;SDS011;631;51.024;13.826;2023-04-25T12:00:51;9.10;;;8.70;;
1276;SDS011;631;51.024;13.826;2023-04-25T12:03:19;9.60;;;9.00;;
1276;SDS011;631;51.024;13.826;2023-04-25T12:05:48;10.03;;;9.50;;
1276;SDS011;631;51.024;13.826;2023-04-25T12:08:15;9.40;;;8.90;;
1276;SDS011;631;51.024;13.826;2023-04-25T12:10:45;9.40;;;9.00;;
1276;SDS011;631;51.024;13.826;2023-04-25T12:13:20;10.27;;;9.67;;
1276;SDS011;631;51.024;13.826;2023-04-25T12:15:50;9.37;;;8.87;;
1276;SDS011;631;51.024;13.826;2023-04-25T12:18:19;10.30;;;9.70;;
1276;SDS011;631;51.024;13.826;2023-04-25T12:20:46;9.83;;;9.33;;
1276;SDS011;631;51.024;13.826;2023-04-25T12:23:11;9.83;;;9.23;;
1276;SDS011;631;51.024;13.826;2023-04-25T12:25:38;10.30;;;9.60;;
1276;SDS011;631;51.024;13.826;2023-04-25T12:28:15;9.90;;;9.30;;
1276;SDS011;631;51.024;13.826;2023-04-25T12:31:01;9.90;;;9.00;;
1276;SDS011;631;51.024;13.826;2023-04-25T12:33:29;9.43;;;8.83;;
1276;SDS011;631;51.024;13.826;2023-04-25T12:35:57;10.30;;;9.70;;
1276;SDS011;631;51.024;13.826;2023-04-25T12:38:24;8.87;;;8.37;;
1276;SDS011;631;51.024;13.826;2023-04-25T12:40:55;9.33;;;8.83;;
1276;SDS011;631;51.024;13.826;2023-04-25T12:43:21;8.73;;;8.13;;
1276;SDS011;631;51.024;13.826;2023-04-25T12:45:47;10.03;;;9.43;;
1276;SDS011;631;51.024;13.826;2023-04-25T12:48:15;8.90;;;8.40;;
1276;SDS011;631;51.024;13.826;2023-04-25T12:50:40;10.93;;;10.23;;
1276;SDS011;631;51.024;13.826;2023-04-25T12:53:07;10.30;;;9.70;;
1276;SDS011;631;51.024;13.826;2023-04-25T12:55:32;10.20;;;9.50;;
1276;SDS011;631;51.024;13.826;2023-04-25T12:57:58;10.77;;;10.17;;
1276;SDS011;631;51.024;13.826;2023-04-25T13:00:24;11.40;;;10.57;;
1276;SDS011;631;51.024;13.826;2023-04-25T13:02:50;10.20;;;9.60;;
1276;SDS011;631;51.024;13.826;2023-04-25T13:05:15;11.30;;;10.43;;
1276;SDS011;631;51.024;13.826;2023-04-25T13:07:41;10.83;;;10.13;;
1276;SDS011;631;51.024;13.826;2023-04-25T13:10:06;10.77;;;9.87;;
1276;SDS011;631;51.024;13.826;2023-04-25T13:12:32;10.93;;;10.03;;
1276;SDS011;631;51.024;13.826;2023-04-25T13:14:58;11.30;;;10.27;;
1276;SDS011;631;51.024;13.826;2023-04-25T13:17:24;12.00;;;11.20;;
1276;SDS011;631;51.024;13.826;2023-04-25T13:19:49;11.40;;;10.60;;
1276;SDS011;631;51.024;13.826;2023-04-25T13:22:15;10.80;;;10.10;;
1276;SDS011;631;51.024;13.826;2023-04-25T13:24:42;10.80;;;10.00;;
1276;SDS011;631;51.024;13.826;2023-04-25T13:27:08;12.53;;;11.60;;
1276;SDS011;631;51.024;13.826;2023-04-25T13:29:33;10.50;;;9.90;;
1276;SDS011;631;51.024;13.826;2023-04-25T13:32:00;10.87;;;10.07;;
1276;SDS011;631;51.024;13.826;2023-04-25T13:34:26;11.57;;;10.77;;
1276;SDS011;631;51.024;13.826;2023-04-25T13:36:54;10.90;;;10.30;;
1276;SDS011;631;51.024;13.826;2023-04-25T13:39:20;11.10;;;10.50;;
1276;SDS011;631;51.024;13.826;2023-04-25T13:41:45;11.47;;;10.40;;
1276;SDS011;631;51.024;13.826;2023-04-25T13:44:11;11.97;;;11.07;;
1276;SDS011;631;51.024;13.826;2023-04-25T13:46:37;11.83;;;10.90;;
1276;SDS011;631;51.024;13.826;2023-04-25T13:49:03;11.30;;;10.60;;
1276;SDS011;631;51.024;13.826;2023-04-25T13:51:29;11.90;;;11.10;;
1276;SDS011;631;51.024;13.826;2023-04-25T13:53:55;12.20;;;11.20;;
1276;SDS011;631;51.024;13.826;2023-04-25T13:56:21;11.60;;;10.83;;
1276;SDS011;631;51.024;13.826;2023-04-25T13:58:48;12.03;;;11.20;;
1276;SDS011;631;51.024;13.826;2023-04-25T14:01:14;11.77;;;11.10;;
1276;SDS011;631;51.024;13.826;2023-04-25T14:03:40;11.97;;;11.27;;
1276;SDS011;631;51.024;13.826;2023-04-25T14:06:06;12.00;;;11.13;;
1276;SDS011;631;51.024;13.826;2023-04-25T14:08:33;12.03;;;10.93;;
1276;SDS011;631;51.024;13.826;2023-04-25T14:10:59;12.07;;;11.37;;
1276;SDS011;631;51.024;13.826;2023-04-25T14:13:25;11.73;;;11.03;;
1276;SDS011;631;51.024;13.826;2023-04-25T14:15:51;12.40;;;11.50;;
1276;SDS011;631;51.024;13.826;2023-04-25T14:18:17;11.73;;;10.93;;
1276;SDS011;631;51.024;13.826;2023-04-25T14:20:43;11.03;;;10.30;;
1276;SDS011;631;51.024;13.826;2023-04-25T14:23:09;12.33;;;11.50;;
1276;SDS011;631;51.024;13.826;2023-04-25T14:25:34;11.60;;;10.70;;
1276;SDS011;631;51.024;13.826;2023-04-25T14:28:01;11.57;;;10.77;;
1276;SDS011;631;51.024;13.826;2023-04-25T14:30:26;11.77;;;10.97;;
1276;SDS011;631;51.024;13.826;2023-04-25T14:32:52;11.53;;;10.73;;
1276;SDS011;631;51.024;13.826;2023-04-25T14:35:18;11.20;;;10.50;;
1276;SDS011;631;51.024;13.826;2023-04-25T14:37:44;11.47;;;10.67;;
1276;SDS011;631;51.024;13.826;2023-04-25T14:40:10;11.80;;;11.10;;
1276;SDS011;631;51.024;13.826;2023-04-25T14:42:38;10.50;;;9.80;;
1276;SDS011;631;51.024;13.826;2023-04-25T14:45:05;11.73;;;10.80;;
1276;SDS011;631;51.024;13.826;2023-04-25T14:47:32;12.57;;;11.70;;
1276;SDS011;631;51.024;13.826;2023-04-25T14:49:58;14.33;;;11.30;;
1276;SDS011;631;51.024;13.826;2023-04-25T14:52:24;12.20;;;11.20;;
1276;SDS011;631;51.024;13.826;2023-04-25T14:54:50;10.87;;;10.07;;
1276;SDS011;631;51.024;13.826;2023-04-25T14:57:16;10.87;;;10.27;;
1276;SDS011;631;51.024;13.826;2023-04-25T14:59:42;10.60;;;9.90;;
1276;SDS011;631;51.024;13.826;2023-04-25T15:02:07;12.07;;;11.17;;
1276;SDS011;631;51.024;13.826;2023-04-25T15:04:33;11.90;;;11.10;;